Time;durP1;ratioP1;P1;durP2;ratioP2;P2;SDS_P1;SDS_P2;PMS_P1;PMS_P2;Temp;Humidity;BMP_temperature;BMP_pressure;BME280_temperature;BME280_humidity;BME280_pressure;Samples;Min_cycle;Max_cycle;Signal;HPM_P1;HPM_P2
2021/10/22 00:02:09;;;;;;;0.30;0.30;;;;;;;;;;5066743;28;20024;-74
2021/10/22 00:04:35;;;;;;;0.60;0.33;;;;;;;;;;5068992;28;20032;-76
2021/10/22 00:07:03;;;;;;;1.40;0.60;;;;;;;;;;5067021;28;20027;-75
2021/10/22 00:09:28;;;;;;;2.20;0.40;;;;;;;;;;5068122;28;20112;-76
2021/10/22 00:11:54;;;;;;;2.80;0.50;;;;;;;;;;5068837;28;20443;-75
2021/10/22 00:14:19;;;;;;;1.60;0.57;;;;;;;;;;5067975;28;20028;-74
2021/10/22 00:16:45;;;;;;;0.77;0.47;;;;;;;;;;5067834;28;20029;-75
2021/10/22 00:19:11;;;;;;;0.67;0.37;;;;;;;;;;5068986;28;20020;-75
2021/10/22 00:21:37;;;;;;;9.57;2.40;;;;;;;;;;5069101;28;20244;-75
2021/10/22 00:24:03;;;;;;;1.83;0.40;;;;;;;;;;5067665;28;20028;-75
2021/10/22 00:26:30;;;;;;;0.93;0.40;;;;;;;;;;5069246;28;20020;-74
2021/10/22 00:28:56;;;;;;;2.87;0.67;;;;;;;;;;5069163;28;20350;-73
2021/10/22 00:31:21;;;;;;;5.10;1.13;;;;;;;;;;5070724;28;20051;-76
2021/10/22 00:33:49;;;;;;;1.97;0.60;;;;;;;;;;5072932;28;20020;-75
2021/10/22 00:36:16;;;;;;;1.30;0.60;;;;;;;;;;5072944;28;20345;-75
2021/10/22 00:38:41;;;;;;;3.67;0.70;;;;;;;;;;5071388;28;20503;-73
2021/10/22 00:41:07;;;;;;;9.63;0.97;;;;;;;;;;5071285;28;20064;-76
2021/10/22 00:43:33;;;;;;;5.57;1.10;;;;;;;;;;5072570;28;20117;-76
2021/10/22 00:45:59;;;;;;;8.90;0.80;;;;;;;;;;5071279;28;20024;-76
2021/10/22 00:48:25;;;;;;;4.97;0.90;;;;;;;;;;5070892;28;20498;-75
2021/10/22 00:51:01;;;;;;;10.13;1.20;;;;;;;;;;5071046;28;20024;-74
2021/10/22 00:53:27;;;;;;;7.60;1.07;;;;;;;;;;5070950;28;20017;-75
2021/10/22 00:55:54;;;;;;;1.40;0.70;;;;;;;;;;5059494;28;20082;-74
2021/10/22 00:58:21;;;;;;;8.57;0.77;;;;;;;;;;5052127;28;20546;-74
2021/10/22 01:00:48;;;;;;;3.97;0.87;;;;;;;;;;5052179;28;20469;-75
2021/10/22 01:03:14;;;;;;;8.70;1.00;;;;;;;;;;5050312;28;20025;-75
2021/10/22 01:05:39;;;;;;;7.63;0.83;;;;;;;;;;5052151;28;20362;-74
2021/10/22 01:08:07;;;;;;;5.70;1.10;;;;;;;;;;5050818;28;20083;-76
2021/10/22 01:10:32;;;;;;;3.03;0.80;;;;;;;;;;5050409;28;20512;-75
2021/10/22 01:12:59;;;;;;;3.10;0.80;;;;;;;;;;5063424;28;20060;-76
2021/10/22 01:15:25;;;;;;;4.00;0.50;;;;;;;;;;5071750;28;20035;-75
2021/10/22 01:17:51;;;;;;;3.63;1.10;;;;;;;;;;5053703;28;20544;-75
2021/10/22 01:20:18;;;;;;;2.80;0.67;;;;;;;;;;5074239;28;20050;-75
2021/10/22 01:22:46;;;;;;;1.33;0.73;;;;;;;;;;5079971;28;20016;-76
2021/10/22 01:25:15;;;;;;;3.87;0.57;;;;;;;;;;5070921;28;20036;-76
2021/10/22 01:27:42;;;;;;;1.20;0.50;;;;;;;;;;5072718;28;20464;-75
2021/10/22 01:30:11;;;;;;;2.03;0.60;;;;;;;;;;5075179;28;20040;-75
2021/10/22 01:32:37;;;;;;;3.97;0.70;;;;;;;;;;5092024;28;20032;-74
2021/10/22 01:35:04;;;;;;;2.83;1.03;;;;;;;;;;5091542;28;20587;-75
2021/10/22 01:37:30;;;;;;;3.60;0.80;;;;;;;;;;5056986;28;20032;-75
2021/10/22 01:39:56;;;;;;;3.13;0.93;;;;;;;;;;5091535;28;20482;-76
2021/10/22 01:42:23;;;;;;;4.70;1.33;;;;;;;;;;5073529;28;20130;-75
2021/10/22 01:44:50;;;;;;;2.93;0.80;;;;;;;;;;5073540;28;20651;-75
2021/10/22 01:47:17;;;;;;;3.80;1.60;;;;;;;;;;5091645;28;20020;-75
2021/10/22 01:49:43;;;;;;;5.40;0.90;;;;;;;;;;5072639;28;20028;-75
2021/10/22 01:52:10;;;;;;;3.77;1.07;;;;;;;;;;5091104;28;20060;-75
2021/10/22 01:54:35;;;;;;;3.70;1.00;;;;;;;;;;5091183;28;20028;-75
2021/10/22 01:57:01;;;;;;;3.40;0.73;;;;;;;;;;5091483;28;20107;-75
2021/10/22 01:59:27;;;;;;;5.00;1.30;;;;;;;;;;5072992;28;20073;-75
2021/10/22 02:01:53;;;;;;;3.17;0.90;;;;;;;;;;5090985;28;20020;-75
2021/10/22 02:04:18;;;;;;;8.47;1.67;;;;;;;;;;5090925;28;20031;-74
2021/10/22 02:06:44;;;;;;;3.70;0.83;;;;;;;;;;5071809;28;20028;-74
2021/10/22 02:09:09;;;;;;;2.43;0.80;;;;;;;;;;5091095;28;20079;-76
2021/10/22 02:11:35;;;;;;;1.40;0.93;;;;;;;;;;5072552;28;20032;-75
2021/10/22 02:14:00;;;;;;;3.57;0.80;;;;;;;;;;5090994;28;20028;-76
2021/10/22 02:16:26;;;;;;;1.27;0.77;;;;;;;;;;5072719;28;20028;-75
2021/10/22 02:18:51;;;;;;;3.17;0.70;;;;;;;;;;5091133;28;20702;-75
2021/10/22 02:21:17;;;;;;;4.37;1.10;;;;;;;;;;5072524;28;20020;-75
2021/10/22 02:23:42;;;;;;;1.83;0.50;;;;;;;;;;5072562;28;20032;-74
2021/10/22 02:26:26;;;;;;;1.43;0.70;;;;;;;;;;5072178;28;20024;-75
2021/10/22 02:28:52;;;;;;;5.43;1.07;;;;;;;;;;5090881;28;20024;-75
2021/10/22 02:31:19;;;;;;;2.70;1.10;;;;;;;;;;5072047;28;20064;-75
2021/10/22 02:33:45;;;;;;;3.30;0.73;;;;;;;;;;5072381;28;20023;-75
2021/10/22 02:36:10;;;;;;;8.73;0.90;;;;;;;;;;5090453;28;20024;-75
2021/10/22 02:38:36;;;;;;;3.70;0.77;;;;;;;;;;5072386;28;20020;-75
2021/10/22 02:41:01;;;;;;;7.77;1.63;;;;;;;;;;5071998;28;20059;-75
2021/10/22 02:43:26;;;;;;;5.53;0.97;;;;;;;;;;5072370;28;20031;-75
2021/10/22 02:45:52;;;;;;;2.53;0.97;;;;;;;;;;5072080;28;20032;-73
2021/10/22 02:48:18;;;;;;;1.43;0.70;;;;;;;;;;5071835;28;20024;-74
2021/10/22 02:50:43;;;;;;;10.13;1.10;;;;;;;;;;5072073;28;20027;-75
2021/10/22 02:53:09;;;;;;;2.27;1.10;;;;;;;;;;5065593;28;20055;-74
2021/10/22 02:55:35;;;;;;;2.17;1.10;;;;;;;;;;5052122;28;20024;-77
2021/10/22 02:58:01;;;;;;;8.57;0.90;;;;;;;;;;5035030;28;20040;-75
2021/10/22 03:00:26;;;;;;;3.77;0.90;;;;;;;;;;5051670;28;20122;-73
2021/10/22 03:02:52;;;;;;;1.10;1.00;;;;;;;;;;5069866;28;20056;-75
2021/10/22 03:05:18;;;;;;;1.20;0.73;;;;;;;;;;5051477;28;20416;-76
2021/10/22 03:07:43;;;;;;;2.20;0.90;;;;;;;;;;5069686;28;20103;-75
2021/10/22 03:10:10;;;;;;;1.10;1.00;;;;;;;;;;5069444;28;20464;-75
2021/10/22 03:12:36;;;;;;;1.20;0.77;;;;;;;;;;5051777;28;20123;-75
2021/10/22 03:15:03;;;;;;;3.37;0.90;;;;;;;;;;5051556;28;20170;-73
2021/10/22 03:17:28;;;;;;;3.13;0.70;;;;;;;;;;5051692;28;20074;-74
2021/10/22 03:19:54;;;;;;;4.13;1.13;;;;;;;;;;5051759;28;20032;-74
2021/10/22 03:22:20;;;;;;;4.23;0.77;;;;;;;;;;5051545;28;20392;-75
2021/10/22 03:24:45;;;;;;;1.30;1.13;;;;;;;;;;5051633;28;20146;-75
2021/10/22 03:27:12;;;;;;;4.53;0.90;;;;;;;;;;5069767;28;20028;-75
2021/10/22 03:29:39;;;;;;;2.17;1.30;;;;;;;;;;5051883;28;20028;-76
2021/10/22 03:32:04;;;;;;;2.63;1.07;;;;;;;;;;5047928;28;20045;-74
2021/10/22 03:34:31;;;;;;;3.77;0.93;;;;;;;;;;5049479;28;20398;-74
2021/10/22 03:36:56;;;;;;;4.77;0.80;;;;;;;;;;5048284;28;20024;-73
2021/10/22 03:39:22;;;;;;;2.60;1.17;;;;;;;;;;5047872;28;20028;-75
2021/10/22 03:41:47;;;;;;;2.87;1.33;;;;;;;;;;5049397;28;20088;-77
2021/10/22 03:44:13;;;;;;;4.33;1.00;;;;;;;;;;5049429;28;20029;-76
2021/10/22 03:46:38;;;;;;;4.20;1.33;;;;;;;;;;5049486;28;20154;-75
2021/10/22 03:49:04;;;;;;;2.33;0.93;;;;;;;;;;5049095;28;20028;-76
2021/10/22 03:51:29;;;;;;;2.37;1.10;;;;;;;;;;5063853;28;20427;-75
2021/10/22 03:53:55;;;;;;;1.97;0.90;;;;;;;;;;5067944;28;20039;-75
2021/10/22 03:56:24;;;;;;;2.97;1.20;;;;;;;;;;5069227;28;20598;-77
2021/10/22 03:58:49;;;;;;;1.00;0.90;;;;;;;;;;5069346;28;20247;-75
2021/10/22 04:01:15;;;;;;;5.13;1.60;;;;;;;;;;5069293;28;20417;-76
2021/10/22 04:03:40;;;;;;;3.13;1.20;;;;;;;;;;5068124;28;20492;-76
2021/10/22 04:06:06;;;;;;;2.47;0.80;;;;;;;;;;5071306;28;20051;-75
2021/10/22 04:08:31;;;;;;;1.80;1.10;;;;;;;;;;5055316;28;20571;-73
2021/10/22 04:10:57;;;;;;;3.13;1.20;;;;;;;;;;5052493;28;20082;-76
2021/10/22 04:13:23;;;;;;;3.07;1.20;;;;;;;;;;5053108;28;20033;-75
2021/10/22 04:15:48;;;;;;;3.87;0.93;;;;;;;;;;5053745;28;20055;-76
2021/10/22 04:18:15;;;;;;;1.87;1.20;;;;;;;;;;5052242;28;20025;-76
2021/10/22 04:20:41;;;;;;;3.23;1.10;;;;;;;;;;5053411;28;20473;-77
2021/10/22 04:23:07;;;;;;;5.43;1.07;;;;;;;;;;5053023;28;20029;-75
2021/10/22 04:25:34;;;;;;;3.07;1.53;;;;;;;;;;5053094;28;20036;-76
2021/10/22 04:28:00;;;;;;;1.97;1.17;;;;;;;;;;5051643;28;20167;-75
2021/10/22 04:30:26;;;;;;;4.27;2.50;;;;;;;;;;5051054;28;20052;-75
2021/10/22 04:32:51;;;;;;;7.17;1.67;;;;;;;;;;5052810;28;20028;-75
2021/10/22 04:35:17;;;;;;;5.27;1.27;;;;;;;;;;5051016;28;20025;-77
2021/10/22 04:38:01;;;;;;;7.23;1.67;;;;;;;;;;5052921;28;20028;-76
2021/10/22 04:40:33;;;;;;;4.27;1.40;;;;;;;;;;5051325;28;20315;-74
2021/10/22 04:43:01;;;;;;;2.30;1.25;;;;;;;;;;5052935;28;20113;-75
2021/10/22 04:45:28;;;;;;;4.20;1.37;;;;;;;;;;5051181;28;20028;-73
2021/10/22 04:47:54;;;;;;;4.73;1.53;;;;;;;;;;5052855;28;20055;-75
2021/10/22 04:50:21;;;;;;;4.33;1.30;;;;;;;;;;5052560;28;20029;-76
2021/10/22 04:52:53;;;;;;;6.03;1.87;;;;;;;;;;5069537;28;20090;-76
2021/10/22 04:55:19;;;;;;;3.20;1.53;;;;;;;;;;5069961;28;20134;-74
2021/10/22 04:57:44;;;;;;;3.00;1.40;;;;;;;;;;5071808;28;20086;-78
2021/10/22 05:00:10;;;;;;;3.40;1.10;;;;;;;;;;5071996;28;20454;-74
2021/10/22 05:02:36;;;;;;;3.80;1.40;;;;;;;;;;5070004;28;20032;-76
2021/10/22 05:05:02;;;;;;;3.90;1.77;;;;;;;;;;5072684;28;20051;-75
2021/10/22 05:07:28;;;;;;;9.07;2.73;;;;;;;;;;5072124;28;20519;-74
2021/10/22 05:09:53;;;;;;;6.60;1.23;;;;;;;;;;5072146;28;20112;-75
2021/10/22 05:12:19;;;;;;;6.47;1.67;;;;;;;;;;5072415;28;20431;-76
2021/10/22 05:14:44;;;;;;;3.90;2.13;;;;;;;;;;5045810;28;20037;-74
2021/10/22 05:17:10;;;;;;;4.50;1.87;;;;;;;;;;5040170;28;20056;-76
2021/10/22 05:19:35;;;;;;;3.83;1.93;;;;;;;;;;5050189;28;20557;-75
2021/10/22 05:22:01;;;;;;;6.30;1.10;;;;;;;;;;5050966;28;20036;-74
2021/10/22 05:24:27;;;;;;;8.13;1.50;;;;;;;;;;5051636;28;20131;-76
2021/10/22 05:26:52;;;;;;;8.23;1.60;;;;;;;;;;5051373;28;20480;-76
2021/10/22 05:29:18;;;;;;;5.67;1.33;;;;;;;;;;5051354;28;20479;-75
2021/10/22 05:31:43;;;;;;;3.23;1.57;;;;;;;;;;5066727;28;20051;-78
2021/10/22 05:34:09;;;;;;;8.17;1.40;;;;;;;;;;5053956;28;20138;-74
2021/10/22 05:36:35;;;;;;;9.93;2.07;;;;;;;;;;5071705;28;20491;-76
2021/10/22 05:39:00;;;;;;;16.30;2.60;;;;;;;;;;5071532;28;20055;-74
2021/10/22 05:41:26;;;;;;;11.47;2.80;;;;;;;;;;5071324;28;20085;-76
2021/10/22 05:43:51;;;;;;;9.67;1.47;;;;;;;;;;5067414;28;20020;-75
2021/10/22 05:46:22;;;;;;;7.23;1.90;;;;;;;;;;5070057;28;20113;-74
2021/10/22 05:48:47;;;;;;;5.50;1.40;;;;;;;;;;5052050;28;20039;-74
2021/10/22 05:51:13;;;;;;;5.43;1.57;;;;;;;;;;5070506;28;20033;-77
2021/10/22 05:53:39;;;;;;;6.80;1.73;;;;;;;;;;5034393;28;20044;-75
2021/10/22 05:56:05;;;;;;;9.20;2.47;;;;;;;;;;5052314;28;20036;-77
2021/10/22 05:58:31;;;;;;;15.87;2.13;;;;;;;;;;5068796;28;20024;-75
2021/10/22 06:00:57;;;;;;;4.07;1.70;;;;;;;;;;5067514;28;20036;-75
2021/10/22 06:03:23;;;;;;;11.20;2.43;;;;;;;;;;5052103;28;20028;-74
2021/10/22 06:05:53;;;;;;;5.90;1.67;;;;;;;;;;5070435;28;20102;-74
2021/10/22 06:08:19;;;;;;;10.03;2.30;;;;;;;;;;5051593;28;20040;-75
2021/10/22 06:10:45;;;;;;;3.03;1.40;;;;;;;;;;5070141;28;20028;-75
2021/10/22 06:13:11;;;;;;;7.10;2.00;;;;;;;;;;5069503;28;20111;-75
2021/10/22 06:15:36;;;;;;;8.77;2.87;;;;;;;;;;5072001;28;20559;-74
2021/10/22 06:18:02;;;;;;;6.97;1.77;;;;;;;;;;5062021;28;20295;-74
2021/10/22 06:20:31;;;;;;;10.97;1.87;;;;;;;;;;5064568;28;20467;-75
2021/10/22 06:25:37;;;;;;;7.40;1.70;;;;;;;;;;5060459;28;20032;-74
2021/10/22 06:28:05;;;;;;;7.13;1.50;;;;;;;;;;5046886;28;20162;-75
2021/10/22 06:30:34;;;;;;;2.93;1.43;;;;;;;;;;5046914;28;20136;-72
2021/10/22 06:32:59;;;;;;;3.70;1.37;;;;;;;;;;5046353;28;20033;-74
2021/10/22 06:35:25;;;;;;;12.17;2.03;;;;;;;;;;5065196;28;20629;-74
2021/10/22 06:37:50;;;;;;;9.53;1.80;;;;;;;;;;5048591;28;20117;-74
2021/10/22 06:40:16;;;;;;;17.43;2.10;;;;;;;;;;5067032;28;20132;-75
2021/10/22 06:42:43;;;;;;;8.23;2.93;;;;;;;;;;5049497;28;20025;-76
2021/10/22 06:45:10;;;;;;;8.87;1.60;;;;;;;;;;5066945;28;20401;-75
2021/10/22 06:47:36;;;;;;;8.43;2.03;;;;;;;;;;5064775;28;20035;-77
2021/10/22 06:50:04;;;;;;;9.43;1.50;;;;;;;;;;5046519;28;20024;-74
2021/10/22 06:52:30;;;;;;;7.83;1.93;;;;;;;;;;5064283;28;20090;-74
2021/10/22 06:54:56;;;;;;;4.77;2.07;;;;;;;;;;5046582;28;20040;-76
2021/10/22 06:57:23;;;;;;;5.83;1.67;;;;;;;;;;5064329;28;20027;-76
2021/10/22 06:59:48;;;;;;;8.83;2.00;;;;;;;;;;5046865;28;20474;-76
2021/10/22 07:02:14;;;;;;;8.90;1.70;;;;;;;;;;5062284;28;20028;-75
2021/10/22 07:04:48;;;;;;;34.80;8.77;;;;;;;;;;5051277;28;20023;-74
2021/10/22 07:07:18;;;;;;;9.13;2.40;;;;;;;;;;5036502;28;20040;-75
2021/10/22 07:09:46;;;;;;;9.33;2.50;;;;;;;;;;5040065;28;20036;-74
2021/10/22 07:12:13;;;;;;;14.60;3.40;;;;;;;;;;5054150;28;20031;-73
2021/10/22 07:14:48;;;;;;;6.20;1.90;;;;;;;;;;5041696;28;20040;-72
2021/10/22 07:17:15;;;;;;;2.27;1.33;;;;;;;;;;5042502;28;20033;-71
2021/10/22 07:19:41;;;;;;;9.63;1.97;;;;;;;;;;5056699;28;20032;-74
2021/10/22 07:22:13;;;;;;;8.03;1.60;;;;;;;;;;5058986;28;20495;-72
2021/10/22 07:24:39;;;;;;;9.10;1.77;;;;;;;;;;5043557;28;20123;-73
2021/10/22 07:27:05;;;;;;;10.90;2.33;;;;;;;;;;5031375;28;20036;-73
2021/10/22 07:29:31;;;;;;;6.60;1.83;;;;;;;;;;5041026;28;20047;-73
2021/10/22 07:31:57;;;;;;;5.23;1.80;;;;;;;;;;5057614;28;20072;-72
2021/10/22 07:34:23;;;;;;;12.10;2.30;;;;;;;;;;5038047;28;20032;-73
2021/10/22 07:36:51;;;;;;;14.43;1.93;;;;;;;;;;5040076;28;20028;-73
2021/10/22 07:39:17;;;;;;;7.40;1.73;;;;;;;;;;5033619;28;20035;-72
2021/10/22 07:41:43;;;;;;;6.83;1.87;;;;;;;;;;5036847;28;20036;-72
2021/10/22 07:44:08;;;;;;;9.17;1.50;;;;;;;;;;5033381;28;20110;-73
2021/10/22 07:46:34;;;;;;;7.77;1.90;;;;;;;;;;5041319;28;20028;-73
2021/10/22 07:49:00;;;;;;;7.27;2.07;;;;;;;;;;5040908;28;20032;-74
2021/10/22 07:51:25;;;;;;;135.53;11.83;;;;;;;;;;5047203;28;20032;-72
2021/10/22 07:53:51;;;;;;;12.83;2.93;;;;;;;;;;5045598;28;20037;-73
2021/10/22 07:56:17;;;;;;;12.23;2.23;;;;;;;;;;5060143;28;20032;-73
2021/10/22 07:58:44;;;;;;;7.67;1.87;;;;;;;;;;5046175;28;20029;-73
2021/10/22 08:01:10;;;;;;;3.77;1.50;;;;;;;;;;5042833;28;20024;-72
2021/10/22 08:03:36;;;;;;;12.00;2.20;;;;;;;;;;5057497;28;20146;-73
2021/10/22 08:06:03;;;;;;;18.50;2.27;;;;;;;;;;5046257;28;20115;-73
2021/10/22 08:08:29;;;;;;;10.00;1.83;;;;;;;;;;5041727;28;20098;-72
2021/10/22 08:10:55;;;;;;;10.20;1.77;;;;;;;;;;5036587;28;20044;-73
2021/10/22 08:13:22;;;;;;;11.73;2.10;;;;;;;;;;5058498;28;20039;-73
2021/10/22 08:15:47;;;;;;;10.07;2.70;;;;;;;;;;5050018;28;20461;-73
2021/10/22 08:18:15;;;;;;;10.53;2.07;;;;;;;;;;5054428;28;20043;-73
2021/10/22 08:20:50;;;;;;;5.63;1.60;;;;;;;;;;5027584;28;20040;-72
2021/10/22 08:23:16;;;;;;;6.03;2.27;;;;;;;;;;5061980;28;20033;-72
2021/10/22 08:25:42;;;;;;;6.57;2.23;;;;;;;;;;5074164;28;20448;-73
2021/10/22 08:28:09;;;;;;;11.90;1.93;;;;;;;;;;5050706;28;20044;-72
2021/10/22 08:30:34;;;;;;;6.77;1.47;;;;;;;;;;5068805;28;20104;-73
2021/10/22 08:33:00;;;;;;;8.73;2.47;;;;;;;;;;5042237;28;20040;-72
2021/10/22 08:35:30;;;;;;;13.53;2.13;;;;;;;;;;5056344;28;20067;-73
2021/10/22 08:37:57;;;;;;;15.63;2.57;;;;;;;;;;5048752;28;20699;-74
2021/10/22 08:40:23;;;;;;;6.27;1.40;;;;;;;;;;5076008;28;20024;-73
2021/10/22 08:42:52;;;;;;;9.83;2.03;;;;;;;;;;5054099;28;20079;-73
2021/10/22 08:45:18;;;;;;;6.93;1.90;;;;;;;;;;5078152;28;20029;-73
2021/10/22 08:47:45;;;;;;;6.10;1.50;;;;;;;;;;5063303;28;20113;-73
2021/10/22 08:50:14;;;;;;;8.20;1.60;;;;;;;;;;5077890;28;20032;-73
2021/10/22 08:52:41;;;;;;;5.70;1.63;;;;;;;;;;5051270;28;20032;-74
2021/10/22 08:55:08;;;;;;;8.13;1.40;;;;;;;;;;5061176;28;20552;-73
2021/10/22 08:57:37;;;;;;;4.33;1.50;;;;;;;;;;5072629;28;20028;-73
2021/10/22 09:00:05;;;;;;;8.53;1.87;;;;;;;;;;5082276;28;20025;-72
2021/10/22 09:02:31;;;;;;;6.67;1.57;;;;;;;;;;5069785;28;20024;-72
2021/10/22 09:05:01;;;;;;;7.67;1.80;;;;;;;;;;5068890;28;20107;-72
2021/10/22 09:07:43;;;;;;;10.57;1.90;;;;;;;;;;5060241;28;20442;-72
2021/10/22 09:10:33;;;;;;;5.63;1.77;;;;;;;;;;5083747;28;20023;-75
2021/10/22 09:13:02;;;;;;;7.20;1.70;;;;;;;;;;5077804;28;20036;-73
2021/10/22 09:15:35;;;;;;;7.67;1.57;;;;;;;;;;5058446;28;20024;-73
2021/10/22 09:18:07;;;;;;;6.33;1.80;;;;;;;;;;5055934;28;20785;-71
2021/10/22 09:20:51;;;;;;;6.77;1.80;;;;;;;;;;5056102;28;20021;-72
2021/10/22 09:23:27;;;;;;;7.67;1.50;;;;;;;;;;5076471;28;20100;-72
2021/10/22 09:26:12;;;;;;;5.27;1.67;;;;;;;;;;5054849;28;20376;-73
2021/10/22 09:28:38;;;;;;;6.90;1.80;;;;;;;;;;5070680;28;20059;-72
2021/10/22 09:31:10;;;;;;;5.43;2.80;;;;;;;;;;5079762;28;20078;-72
2021/10/22 09:33:51;;;;;;;11.32;2.45;;;;;;;;;;5045581;28;20646;-73
2021/10/22 09:36:38;;;;;;;8.40;1.93;;;;;;;;;;5071641;28;20102;-72
2021/10/22 09:39:08;;;;;;;6.43;2.07;;;;;;;;;;5076510;28;20024;-73
2021/10/22 09:41:47;;;;;;;6.17;1.50;;;;;;;;;;5068641;28;20120;-72
2021/10/22 09:44:23;;;;;;;11.00;2.10;;;;;;;;;;5074921;28;20020;-73
2021/10/22 09:46:51;;;;;;;4.07;1.53;;;;;;;;;;5071327;28;20123;-72
2021/10/22 09:49:27;;;;;;;5.77;1.50;;;;;;;;;;5062301;28;20039;-74
2021/10/22 09:51:55;;;;;;;5.67;1.50;;;;;;;;;;5061291;28;20705;-72
2021/10/22 09:54:21;;;;;;;5.20;2.10;;;;;;;;;;5083447;28;20027;-73
2021/10/22 09:56:53;;;;;;;4.33;1.33;;;;;;;;;;5053742;28;20523;-71
2021/10/22 09:59:24;;;;;;;6.47;1.20;;;;;;;;;;5057635;28;20565;-72
2021/10/22 10:01:51;;;;;;;5.33;1.20;;;;;;;;;;5069016;28;20490;-72
2021/10/22 10:04:25;;;;;;;3.53;1.20;;;;;;;;;;5080560;28;20035;-72
2021/10/22 10:06:51;;;;;;;4.83;1.60;;;;;;;;;;5067466;28;20028;-72
2021/10/22 10:09:19;;;;;;;22.87;7.50;;;;;;;;;;5076659;28;20036;-72
2021/10/22 10:11:46;;;;;;;6.33;1.50;;;;;;;;;;5068111;28;20043;-73
2021/10/22 10:14:14;;;;;;;6.10;1.40;;;;;;;;;;5064759;28;20380;-73
2021/10/22 10:16:42;;;;;;;4.20;1.70;;;;;;;;;;5071107;28;20036;-73
2021/10/22 10:19:15;;;;;;;6.83;1.43;;;;;;;;;;5067852;28;20112;-73
2021/10/22 10:21:47;;;;;;;7.07;1.60;;;;;;;;;;5063492;28;20130;-73
2021/10/22 10:24:16;;;;;;;11.93;4.80;;;;;;;;;;5066130;28;20023;-72
2021/10/22 10:26:42;;;;;;;9.93;1.30;;;;;;;;;;5057421;28;20032;-72
2021/10/22 10:29:10;;;;;;;7.77;1.50;;;;;;;;;;5067549;28;20088;-72
2021/10/22 10:31:45;;;;;;;6.40;2.03;;;;;;;;;;5078242;28;20051;-72
2021/10/22 10:34:35;;;;;;;6.70;1.57;;;;;;;;;;5053047;28;20753;-72
2021/10/22 10:37:05;;;;;;;6.53;1.10;;;;;;;;;;5065462;28;20110;-72
2021/10/22 10:39:53;;;;;;;9.47;1.87;;;;;;;;;;5074131;28;20434;-73
2021/10/22 10:42:37;;;;;;;9.67;1.20;;;;;;;;;;5084978;28;20567;-72
2021/10/22 10:45:21;;;;;;;4.20;1.13;;;;;;;;;;5070424;28;20051;-72
2021/10/22 10:48:07;;;;;;;11.23;2.00;;;;;;;;;;5067182;28;20032;-73
2021/10/22 10:50:34;;;;;;;9.30;1.73;;;;;;;;;;5085386;28;20031;-72
2021/10/22 10:52:59;;;;;;;9.93;1.60;;;;;;;;;;5061798;28;20028;-72
2021/10/22 10:55:28;;;;;;;5.90;1.83;;;;;;;;;;5070104;28;20047;-73
2021/10/22 10:58:00;;;;;;;5.57;1.87;;;;;;;;;;5087638;28;20027;-73
2021/10/22 11:00:31;;;;;;;3.85;1.35;;;;;;;;;;5074341;28;20050;-71
2021/10/22 11:03:01;;;;;;;10.02;1.98;;;;;;;;;;5065286;28;20035;-74
2021/10/22 11:05:56;;;;;;;10.43;1.40;;;;;;;;;;5055021;28;20039;-73
2021/10/22 11:08:25;;;;;;;9.97;1.50;;;;;;;;;;5052551;28;20051;-74
2021/10/22 11:10:59;;;;;;;4.43;1.50;;;;;;;;;;5064629;28;20085;-72
2021/10/22 11:13:42;;;;;;;8.00;1.70;;;;;;;;;;5049950;28;20055;-73
2021/10/22 11:19:00;;;;;;;5.10;1.00;;;;;;;;;;5067359;28;20044;-72
2021/10/22 11:21:32;;;;;;;6.87;1.30;;;;;;;;;;5063303;28;20165;-73
2021/10/22 11:24:00;;;;;;;9.00;2.10;;;;;;;;;;5066394;28;20016;-73
2021/10/22 11:26:28;;;;;;;5.07;1.97;;;;;;;;;;5055857;28;20364;-74
2021/10/22 11:29:00;;;;;;;4.60;1.57;;;;;;;;;;5060370;28;20039;-73
2021/10/22 11:31:47;;;;;;;15.55;1.98;;;;;;;;;;5037383;28;20096;-74
2021/10/22 11:34:26;;;;;;;5.00;1.27;;;;;;;;;;5076658;28;20048;-73
2021/10/22 11:37:15;;;;;;;7.77;1.73;;;;;;;;;;5046678;28;20036;-73
2021/10/22 11:39:42;;;;;;;4.97;1.13;;;;;;;;;;5081188;28;20043;-73
2021/10/22 11:42:16;;;;;;;6.70;1.70;;;;;;;;;;5063735;28;20032;-72
2021/10/22 11:44:46;;;;;;;4.23;1.57;;;;;;;;;;5061618;28;20029;-75
2021/10/22 11:47:14;;;;;;;4.03;1.33;;;;;;;;;;5071360;28;20035;-73
2021/10/22 11:49:41;;;;;;;8.37;2.53;;;;;;;;;;5082494;28;20024;-73
2021/10/22 11:52:09;;;;;;;6.33;1.43;;;;;;;;;;5067127;28;20980;-71
2021/10/22 11:54:44;;;;;;;5.60;1.17;;;;;;;;;;5041967;28;20024;-73
2021/10/22 11:57:16;;;;;;;7.10;2.00;;;;;;;;;;5062978;28;20142;-72
2021/10/22 11:59:47;;;;;;;5.20;1.20;;;;;;;;;;5069469;28;20047;-72
2021/10/22 12:02:33;;;;;;;6.05;1.20;;;;;;;;;;5063277;28;20083;-72
2021/10/22 12:05:09;;;;;;;8.00;2.85;;;;;;;;;;5039915;28;20437;-73
2021/10/22 12:07:40;;;;;;;7.93;1.77;;;;;;;;;;5053588;28;20031;-73
2021/10/22 12:10:08;;;;;;;4.60;0.93;;;;;;;;;;5042813;28;20033;-71
2021/10/22 12:12:48;;;;;;;5.82;1.35;;;;;;;;;;5060792;28;20180;-71
2021/10/22 12:15:31;;;;;;;11.50;1.75;;;;;;;;;;5039749;28;20112;-73
2021/10/22 12:17:59;;;;;;;2.67;1.08;;;;;;;;;;5029891;28;20044;-74
2021/10/22 12:20:26;;;;;;;2.17;1.02;;;;;;;;;;5062928;28;20063;-73
2021/10/22 12:22:56;;;;;;;6.38;1.15;;;;;;;;;;5026681;28;20480;-73
2021/10/22 12:25:24;;;;;;;16.52;1.50;;;;;;;;;;5063679;28;20045;-73
2021/10/22 12:27:50;;;;;;;6.25;1.23;;;;;;;;;;5048193;28;20526;-73
2021/10/22 12:30:26;;;;;;;6.60;1.23;;;;;;;;;;5046404;28;20029;-73
2021/10/22 12:32:54;;;;;;;7.35;1.13;;;;;;;;;;5043279;28;20040;-73
2021/10/22 12:35:34;;;;;;;4.90;1.00;;;;;;;;;;5049884;28;20105;-73
2021/10/22 12:38:08;;;;;;;5.93;1.00;;;;;;;;;;5047172;28;20051;-74
2021/10/22 12:40:36;;;;;;;6.10;1.30;;;;;;;;;;5045914;28;20044;-72
2021/10/22 12:43:24;;;;;;;3.78;1.40;;;;;;;;;;5064093;28;20048;-72
2021/10/22 12:46:19;;;;;;;13.82;2.17;;;;;;;;;;5050168;28;20081;-73
2021/10/22 12:48:52;;;;;;;6.30;1.27;;;;;;;;;;5037390;28;20048;-73
2021/10/22 12:51:26;;;;;;;5.97;1.10;;;;;;;;;;5064142;28;20417;-73
2021/10/22 12:53:59;;;;;;;5.45;1.15;;;;;;;;;;5062239;28;20060;-74
2021/10/22 12:56:27;;;;;;;7.72;1.23;;;;;;;;;;5064334;28;20082;-73
2021/10/22 12:59:08;;;;;;;6.00;1.23;;;;;;;;;;5046332;28;20050;-74
2021/10/22 13:01:41;;;;;;;4.05;1.20;;;;;;;;;;5047190;28;20426;-72
2021/10/22 13:04:10;;;;;;;4.57;1.20;;;;;;;;;;5048607;28;20033;-74
2021/10/22 13:22:53;;;;;;;5.15;1.17;;;;;;;;;;5065628;28;20048;-72
2021/10/22 13:25:20;;;;;;;2.13;0.80;;;;;;;;;;5049702;28;20030;-72
2021/10/22 13:27:46;;;;;;;3.20;1.75;;;;;;;;;;5048273;28;20127;-74
2021/10/22 13:30:13;;;;;;;8.85;0.80;;;;;;;;;;5045876;28;20181;-74
2021/10/22 13:32:44;;;;;;;9.65;1.23;;;;;;;;;;5066167;28;20040;-72
2021/10/22 13:35:10;;;;;;;9.57;1.75;;;;;;;;;;5050061;28;20503;-73
2021/10/22 13:37:40;;;;;;;13.40;1.48;;;;;;;;;;5047155;28;20035;-72
2021/10/22 13:40:08;;;;;;;6.88;1.10;;;;;;;;;;5046974;28;20028;-73
2021/10/22 13:42:34;;;;;;;5.15;1.15;;;;;;;;;;5047662;28;20487;-73
2021/10/22 13:45:01;;;;;;;5.40;1.02;;;;;;;;;;5048879;28;20048;-73
2021/10/22 13:47:26;;;;;;;10.70;1.30;;;;;;;;;;5047652;28;20398;-73
2021/10/22 13:49:52;;;;;;;6.95;1.00;;;;;;;;;;5052954;28;20844;-73
2021/10/22 13:52:18;;;;;;;4.05;1.02;;;;;;;;;;5048415;28;20087;-73
2021/10/22 13:54:44;;;;;;;0.52;0.50;;;;;;;;;;5065055;28;20777;-73
2021/10/22 13:57:11;;;;;;;4.30;1.20;;;;;;;;;;5043687;28;20033;-73
2021/10/22 13:59:38;;;;;;;5.38;0.77;;;;;;;;;;5062472;28;20032;-72
2021/10/22 14:02:08;;;;;;;5.60;1.20;;;;;;;;;;5062282;28;20033;-73
2021/10/22 14:04:34;;;;;;;6.28;1.08;;;;;;;;;;5044897;28;20024;-75
2021/10/22 14:06:59;;;;;;;4.70;0.90;;;;;;;;;;5044096;28;20430;-72
2021/10/22 14:09:25;;;;;;;5.47;1.17;;;;;;;;;;5062687;28;20020;-72
2021/10/22 14:12:27;;;;;;;5.78;1.20;;;;;;;;;;5042000;28;20482;-74
2021/10/22 14:14:49;;;;;;;3.70;0.80;;;;;;;;;;5054964;28;20428;-73
2021/10/22 14:30:43;;;;;;;4.90;2.00;;;;;;;;;;5058929;28;20129;-73
2021/10/22 14:33:09;;;;;;;6.88;1.33;;;;;;;;;;5041459;28;20029;-72
2021/10/22 14:35:35;;;;;;;3.78;0.70;;;;;;;;;;5060902;28;20056;-73
2021/10/22 14:38:01;;;;;;;6.68;1.15;;;;;;;;;;5043394;28;20069;-74
2021/10/22 14:40:27;;;;;;;1.35;0.60;;;;;;;;;;5064264;28;20077;-71
2021/10/22 14:42:53;;;;;;;3.97;0.73;;;;;;;;;;5045421;28;20024;-72
2021/10/22 14:46:08;;;;;;;7.80;1.43;;;;;;;;;;5060998;28;20594;-73
2021/10/22 14:48:11;;;;;;;6.37;1.10;;;;;;;;;;5043614;28;20484;-73
2021/10/22 14:50:40;;;;;;;3.90;0.80;;;;;;;;;;5044562;28;20043;-72
2021/10/22 14:53:35;;;;;;;3.43;1.13;;;;;;;;;;5042157;28;20032;-72
2021/10/22 14:56:01;;;;;;;5.10;1.67;;;;;;;;;;5060499;28;20020;-73
2021/10/22 14:58:26;;;;;;;3.90;1.23;;;;;;;;;;5061689;28;20038;-73
2021/10/22 15:00:53;;;;;;;3.43;1.10;;;;;;;;;;5052108;28;20041;-73
2021/10/22 15:03:19;;;;;;;7.03;1.57;;;;;;;;;;5039503;28;20033;-72
2021/10/22 15:05:45;;;;;;;4.90;1.40;;;;;;;;;;5021649;28;20480;-74
2021/10/22 15:08:15;;;;;;;9.17;1.73;;;;;;;;;;5057317;28;20150;-73
2021/10/22 15:10:41;;;;;;;3.13;1.03;;;;;;;;;;5043551;28;20032;-72
2021/10/22 15:13:12;;;;;;;13.23;1.30;;;;;;;;;;5062683;28;20143;-73
2021/10/22 15:15:37;;;;;;;5.43;2.80;;;;;;;;;;5034107;28;20024;-74
2021/10/22 15:18:03;;;;;;;5.67;1.37;;;;;;;;;;5036289;28;20539;-74
2021/10/22 15:20:28;;;;;;;5.90;1.20;;;;;;;;;;5043044;28;20066;-74
2021/10/22 15:22:55;;;;;;;3.33;1.03;;;;;;;;;;5066327;28;20495;-73
2021/10/22 15:25:21;;;;;;;3.00;1.50;;;;;;;;;;5033840;28;20512;-75